Time;durP1;ratioP1;P1;durP2;ratioP2;P2;SDS_P1;SDS_P2;PMS_P1;PMS_P2;Temp;Humidity;BMP_temperature;BMP_pressure;BME280_temperature;BME280_humidity;BME280_pressure;Samples;Min_cycle;Max_cycle;Signal;HPM_P1;HPM_P2
2024/01/03 00:01:00;;;;;;;13.85;2.25;;;10.80;89.20;;;;;;9179717;19;19926;-70
2024/01/03 00:04:07;;;;;;;14.48;2.53;;;10.80;89.20;;;;;;9178939;19;20003;-71
2024/01/03 00:07:18;;;;;;;19.02;2.47;;;10.70;89.30;;;;;;9177527;19;20025;-71
2024/01/03 00:10:37;;;;;;;14.32;2.47;;;10.80;89.40;;;;;;9179742;19;20513;-72
2024/01/03 00:14:06;;;;;;;12.40;2.38;;;10.80;89.50;;;;;;9178915;19;20478;-72
2024/01/03 00:17:13;;;;;;;12.73;2.95;;;10.70;89.40;;;;;;9178255;19;20121;-72
2024/01/03 00:20:21;;;;;;;13.35;2.65;;;10.70;89.50;;;;;;9177713;19;20026;-70
2024/01/03 00:23:38;;;;;;;23.45;2.88;;;10.70;89.60;;;;;;9178782;19;20090;-70
2024/01/03 00:26:46;;;;;;;18.73;2.35;;;10.70;89.70;;;;;;9178998;19;20019;-70
2024/01/03 00:29:56;;;;;;;16.27;2.78;;;10.60;89.70;;;;;;9178319;19;20018;-70
2024/01/03 00:33:04;;;;;;;14.98;2.15;;;10.60;89.70;;;;;;9177778;19;20018;-71
2024/01/03 00:36:11;;;;;;;17.65;2.55;;;10.60;89.70;;;;;;9176386;19;20409;-70
2024/01/03 00:39:27;;;;;;;15.70;2.25;;;10.60;89.70;;;;;;9177220;19;20015;-69
2024/01/03 00:42:32;;;;;;;17.30;2.10;;;10.60;89.70;;;;;;9177840;19;20015;-71
2024/01/03 00:45:41;;;;;;;11.10;2.15;;;10.60;89.80;;;;;;9178343;19;20026;-70
2024/01/03 00:48:47;;;;;;;18.00;2.55;;;10.60;89.70;;;;;;9171066;19;20058;-74
2024/01/03 00:51:56;;;;;;;16.58;2.25;;;10.60;89.80;;;;;;9176995;19;20021;-74
2024/01/03 00:55:05;;;;;;;17.95;1.95;;;10.50;89.80;;;;;;9172832;19;20028;-73
2024/01/03 00:58:13;;;;;;;12.07;2.22;;;10.60;89.90;;;;;;9175212;19;20011;-74
2024/01/03 01:01:19;;;;;;;9.50;1.45;;;10.50;89.80;;;;;;9175772;19;20741;-73
2024/01/03 01:04:27;;;;;;;8.75;1.33;;;10.50;89.70;;;;;;9174579;19;20038;-73
2024/01/03 01:07:32;;;;;;;5.63;1.30;;;10.50;89.80;;;;;;9172860;19;20106;-73
2024/01/03 01:10:43;;;;;;;3.67;0.98;;;10.40;89.70;;;;;;9175944;19;20093;-74
2024/01/03 01:13:49;;;;;;;5.03;1.15;;;10.40;89.70;;;;;;9174636;19;20015;-74
2024/01/03 01:16:56;;;;;;;6.43;1.50;;;10.40;89.70;;;;;;9174616;19;20029;-73
2024/01/03 01:20:02;;;;;;;7.25;1.45;;;10.30;89.60;;;;;;9175515;19;20133;-74
2024/01/03 01:23:10;;;;;;;3.83;1.05;;;10.30;89.70;;;;;;9177170;19;20526;-73
2024/01/03 01:26:18;;;;;;;5.65;0.98;;;10.30;89.80;;;;;;9176369;19;20093;-73
2024/01/03 01:29:26;;;;;;;8.30;1.38;;;10.30;89.80;;;;;;9174585;19;20367;-73
2024/01/03 01:32:32;;;;;;;7.72;1.40;;;10.20;89.70;;;;;;9175558;19;20040;-74
2024/01/03 01:35:40;;;;;;;8.25;1.02;;;10.20;89.80;;;;;;9174719;19;20018;-73
2024/01/03 01:38:47;;;;;;;2.00;0.63;;;10.20;89.80;;;;;;9175400;19;20016;-73
2024/01/03 01:42:00;;;;;;;7.72;1.33;;;10.20;89.90;;;;;;9175363;19;20018;-73
2024/01/03 01:45:06;;;;;;;5.13;0.95;;;10.20;89.90;;;;;;9173940;19;20019;-73
2024/01/03 01:48:18;;;;;;;6.97;1.42;;;10.20;89.90;;;;;;9173543;19;20018;-73
2024/01/03 01:51:24;;;;;;;6.28;1.40;;;10.20;89.90;;;;;;9168358;19;20022;-74
2024/01/03 01:54:32;;;;;;;8.15;1.50;;;10.20;90.00;;;;;;9174721;19;20057;-73
2024/01/03 01:57:45;;;;;;;6.43;1.33;;;10.10;89.90;;;;;;9173085;19;20013;-77
2024/01/03 02:00:56;;;;;;;5.07;1.65;;;10.10;90.00;;;;;;9176972;19;20389;-78
2024/01/03 02:04:10;;;;;;;13.15;2.33;;;10.20;90.00;;;;;;9177993;19;20398;-77
2024/01/03 02:07:17;;;;;;;11.65;2.00;;;10.20;90.10;;;;;;9176155;19;20022;-78
2024/01/03 02:10:23;;;;;;;8.82;2.33;;;10.20;90.10;;;;;;9180082;19;20468;-80
2024/01/03 02:13:34;;;;;;;7.22;1.27;;;10.20;90.10;;;;;;9178219;19;20021;-77
2024/01/03 02:16:41;;;;;;;7.82;1.65;;;10.20;90.10;;;;;;9175554;19;20019;-78
2024/01/03 02:20:00;;;;;;;10.23;1.65;;;10.20;90.10;;;;;;9171519;19;20018;-77
2024/01/03 02:23:10;;;;;;;13.18;1.42;;;10.20;90.10;;;;;;9173721;19;20042;-79
2024/01/03 02:26:18;;;;;;;9.43;2.05;;;10.10;90.10;;;;;;9174775;19;20380;-77
2024/01/03 02:29:35;;;;;;;15.70;1.77;;;10.20;90.10;;;;;;9174342;19;20019;-77
2024/01/03 02:32:43;;;;;;;18.17;2.15;;;10.10;90.10;;;;;;9174810;19;20021;-75
2024/01/03 02:35:49;;;;;;;14.65;2.00;;;10.10;90.10;;;;;;9173970;19;20036;-76
2024/01/03 02:39:01;;;;;;;18.17;3.13;;;10.10;90.20;;;;;;9177229;19;20066;-76
2024/01/03 02:42:07;;;;;;;20.90;3.33;;;10.10;90.10;;;;;;9176052;19;20465;-75
2024/01/03 02:45:15;;;;;;;24.50;3.42;;;10.10;90.10;;;;;;9173100;19;20029;-76
2024/01/03 02:48:20;;;;;;;24.05;3.17;;;10.10;90.10;;;;;;9175006;19;20018;-76
2024/01/03 02:51:28;;;;;;;25.83;3.17;;;10.20;90.20;;;;;;9170577;19;20246;-76
2024/01/03 02:54:36;;;;;;;29.77;3.83;;;10.20;90.20;;;;;;9172426;19;20034;-75
2024/01/03 02:57:44;;;;;;;23.30;3.35;;;10.20;90.20;;;;;;9169848;19;20481;-75
2024/01/03 03:00:50;;;;;;;19.23;3.38;;;10.20;90.20;;;;;;9174558;19;20018;-75
2024/01/03 03:03:58;;;;;;;20.67;3.65;;;10.20;90.20;;;;;;9173760;19;20025;-76
2024/01/03 03:07:04;;;;;;;30.02;3.25;;;10.30;90.20;;;;;;9171591;19;20011;-70
2024/01/03 03:10:15;;;;;;;23.33;3.28;;;10.30;90.20;;;;;;9172088;19;20068;-70
2024/01/03 03:13:23;;;;;;;21.75;3.55;;;10.30;90.20;;;;;;9173207;19;20041;-69
2024/01/03 03:16:30;;;;;;;25.23;3.78;;;10.30;90.10;;;;;;9170719;19;20021;-69
2024/01/03 03:19:36;;;;;;;22.38;2.78;;;10.30;90.10;;;;;;9170593;19;20003;-70
2024/01/03 03:22:44;;;;;;;19.73;3.03;;;10.40;90.20;;;;;;9171932;19;20021;-70
2024/01/03 03:25:52;;;;;;;18.15;2.85;;;10.40;90.10;;;;;;9171289;19;20022;-70
2024/01/03 03:29:00;;;;;;;29.10;3.20;;;10.40;90.10;;;;;;9171326;19;20795;-70
2024/01/03 03:32:06;;;;;;;19.77;3.25;;;10.40;90.10;;;;;;9177211;19;20022;-69
2024/01/03 03:35:13;;;;;;;23.85;3.20;;;10.40;90.00;;;;;;9180211;19;20021;-70
2024/01/03 03:38:19;;;;;;;21.88;3.70;;;10.50;90.10;;;;;;9178269;19;20050;-69
2024/01/03 03:41:29;;;;;;;21.33;3.35;;;10.40;90.00;;;;;;9179224;19;20018;-70
2024/01/03 03:44:35;;;;;;;28.48;3.63;;;10.40;90.00;;;;;;9178744;19;20441;-69
2024/01/03 03:47:43;;;;;;;26.33;4.07;;;10.50;90.00;;;;;;9179344;19;20029;-70
2024/01/03 03:50:49;;;;;;;19.10;2.97;;;10.50;90.00;;;;;;9175274;19;20472;-70
2024/01/03 03:53:57;;;;;;;26.10;2.92;;;10.50;89.90;;;;;;9180237;19;20018;-71
2024/01/03 03:57:06;;;;;;;23.13;2.42;;;10.50;89.90;;;;;;9177941;19;20022;-71
2024/01/03 04:00:15;;;;;;;21.10;3.13;;;10.50;89.90;;;;;;9180059;19;20022;-69
2024/01/03 04:03:21;;;;;;;17.30;3.28;;;10.50;90.00;;;;;;9177757;19;20015;-69
2024/01/03 04:06:29;;;;;;;21.77;2.80;;;10.50;89.90;;;;;;9177337;19;20420;-70
2024/01/03 04:09:35;;;;;;;27.30;4.45;;;10.50;89.70;;;;;;9179743;19;20014;-70
2024/01/03 04:12:45;;;;;;;20.25;2.72;;;10.50;89.70;;;;;;9179017;19;20022;-73
2024/01/03 04:15:51;;;;;;;23.45;3.20;;;10.50;89.70;;;;;;9177494;19;20018;-69
2024/01/03 04:18:59;;;;;;;28.13;4.10;;;10.50;89.70;;;;;;9176001;19;20015;-75
2024/01/03 04:22:04;;;;;;;18.77;3.42;;;10.60;89.70;;;;;;9176971;19;20018;-75
2024/01/03 04:25:12;;;;;;;24.02;2.90;;;10.60;89.60;;;;;;9178862;19;20022;-75
2024/01/03 04:28:20;;;;;;;19.15;3.22;;;10.60;89.50;;;;;;9179040;19;20014;-75
2024/01/03 04:31:28;;;;;;;17.63;2.72;;;10.60;89.50;;;;;;9179359;19;20026;-75
2024/01/03 04:34:40;;;;;;;19.48;2.65;;;10.60;89.40;;;;;;9178504;19;20451;-75
2024/01/03 04:37:47;;;;;;;19.55;2.63;;;10.60;89.30;;;;;;9174063;19;20023;-75
2024/01/03 04:40:53;;;;;;;20.75;2.60;;;10.60;89.30;;;;;;9178732;19;20047;-75
2024/01/03 04:44:03;;;;;;;20.20;4.43;;;10.70;89.20;;;;;;9176916;19;20025;-76
2024/01/03 04:47:09;;;;;;;29.95;3.80;;;10.60;89.10;;;;;;9178266;19;20585;-76
2024/01/03 04:50:17;;;;;;;29.98;3.58;;;10.60;89.20;;;;;;9172643;19;20025;-76
2024/01/03 04:53:22;;;;;;;27.65;5.25;;;10.70;89.30;;;;;;9177298;19;20433;-76
2024/01/03 04:56:30;;;;;;;25.00;4.25;;;10.60;89.10;;;;;;9177239;19;20018;-75
2024/01/03 04:59:38;;;;;;;22.92;3.58;;;10.60;89.10;;;;;;9174546;19;20018;-77
2024/01/03 05:02:46;;;;;;;24.35;3.33;;;10.70;89.20;;;;;;9176929;19;20014;-76
2024/01/03 05:05:51;;;;;;;20.52;2.67;;;10.70;89.20;;;;;;9176349;19;20018;-75
2024/01/03 05:08:59;;;;;;;27.85;4.50;;;10.70;89.20;;;;;;9176675;19;20029;-76
2024/01/03 05:12:05;;;;;;;24.63;4.35;;;10.70;89.20;;;;;;9177019;19;20014;-75
2024/01/03 05:15:16;;;;;;;23.40;3.33;;;10.70;89.20;;;;;;9175300;19;20022;-75
2024/01/03 05:18:21;;;;;;;23.58;4.00;;;10.70;89.10;;;;;;9174191;19;20026;-76
2024/01/03 05:21:29;;;;;;;21.02;3.60;;;10.60;89.00;;;;;;9175500;19;20029;-75
2024/01/03 05:24:35;;;;;;;28.38;3.45;;;10.70;89.10;;;;;;9175762;19;20101;-76
2024/01/03 05:27:47;;;;;;;27.67;3.92;;;10.70;89.10;;;;;;9176325;19;20014;-71
2024/01/03 05:30:59;;;;;;;29.83;3.38;;;10.70;89.00;;;;;;9175193;19;20003;-69
2024/01/03 05:34:08;;;;;;;23.90;3.85;;;10.70;89.00;;;;;;9174355;19;20360;-69
2024/01/03 05:37:25;;;;;;;27.20;4.35;;;10.70;89.00;;;;;;9175373;19;20464;-71
2024/01/03 05:40:36;;;;;;;25.58;4.05;;;10.70;89.00;;;;;;9174104;19;20025;-69
2024/01/03 05:43:41;;;;;;;24.27;3.47;;;10.70;89.00;;;;;;9175931;19;20090;-69
2024/01/03 05:46:53;;;;;;;28.95;4.45;;;10.70;89.00;;;;;;9174500;19;20011;-72
2024/01/03 05:50:01;;;;;;;20.35;4.10;;;10.70;89.10;;;;;;9171675;19;20014;-70
2024/01/03 05:53:09;;;;;;;39.95;4.97;;;10.70;89.00;;;;;;9172456;19;20029;-71
2024/01/03 05:56:15;;;;;;;30.35;5.28;;;10.70;89.00;;;;;;9172535;19;20090;-70
2024/01/03 05:59:23;;;;;;;28.95;3.63;;;10.70;89.00;;;;;;9171497;19;20025;-70
2024/01/03 06:02:31;;;;;;;25.45;3.88;;;10.70;89.00;;;;;;9174908;19;20128;-70
2024/01/03 06:05:38;;;;;;;33.22;3.75;;;10.80;89.00;;;;;;9173264;19;20030;-70
2024/01/03 06:08:44;;;;;;;27.25;5.65;;;10.70;89.60;;;;;;9173039;19;20048;-74
2024/01/03 06:11:52;;;;;;;28.92;4.25;;;10.70;89.00;;;;;;9174441;19;20014;-68
2024/01/03 06:14:58;;;;;;;28.15;4.55;;;10.70;89.00;;;;;;9174077;19;20360;-70
2024/01/03 06:18:09;;;;;;;27.00;4.72;;;10.70;89.00;;;;;;9173547;19;20026;-71
2024/01/03 06:21:15;;;;;;;39.40;4.63;;;10.70;88.90;;;;;;9174243;19;20029;-69
2024/01/03 06:24:30;;;;;;;22.90;3.45;;;10.70;89.00;;;;;;9171692;19;20583;-70
2024/01/03 06:27:36;;;;;;;24.73;4.88;;;10.80;89.00;;;;;;9174087;19;20018;-72
2024/01/03 06:30:43;;;;;;;28.00;3.88;;;10.80;89.10;;;;;;9173281;19;20014;-69
2024/01/03 06:33:52;;;;;;;26.45;4.10;;;10.80;89.10;;;;;;9174036;19;20018;-70
2024/01/03 06:37:00;;;;;;;27.77;4.15;;;10.70;89.00;;;;;;9172347;19;20026;-74
2024/01/03 06:40:06;;;;;;;30.27;4.45;;;10.70;89.10;;;;;;9171496;19;20011;-75
2024/01/03 06:43:14;;;;;;;20.45;3.70;;;10.70;89.00;;;;;;9172067;19;20015;-74
2024/01/03 06:46:22;;;;;;;31.20;4.28;;;10.80;89.10;;;;;;9172417;19;20021;-76
2024/01/03 06:49:32;;;;;;;30.98;3.47;;;10.70;89.10;;;;;;9169147;19;20018;-74
2024/01/03 06:52:37;;;;;;;26.48;4.65;;;10.80;89.10;;;;;;9171654;19;20006;-74
2024/01/03 06:55:45;;;;;;;30.08;3.80;;;10.70;89.00;;;;;;9172121;19;20019;-75
2024/01/03 06:58:51;;;;;;;35.38;3.42;;;10.80;89.00;;;;;;9168416;19;20015;-76
2024/01/03 07:01:59;;;;;;;23.80;4.53;;;10.70;89.00;;;;;;9171488;19;20015;-74
2024/01/03 07:05:07;;;;;;;27.60;3.92;;;10.70;89.00;;;;;;9174729;19;20023;-75
2024/01/03 07:08:17;;;;;;;21.63;3.05;;;10.70;89.00;;;;;;9178295;19;20471;-75
2024/01/03 07:11:23;;;;;;;25.67;5.15;;;10.80;89.10;;;;;;9181301;19;20082;-75
2024/01/03 07:14:31;;;;;;;19.83;3.00;;;10.70;89.10;;;;;;9181112;19;20018;-75
2024/01/03 07:17:39;;;;;;;20.88;3.00;;;10.70;89.10;;;;;;9179743;19;20023;-74
2024/01/03 07:20:54;;;;;;;15.40;2.28;;;10.70;89.10;;;;;;9175790;19;20112;-76
2024/01/03 07:24:01;;;;;;;12.52;2.45;;;10.70;89.20;;;;;;9178232;19;20484;-75
2024/01/03 07:27:09;;;;;;;15.48;2.40;;;10.70;89.10;;;;;;9177335;19;20014;-75
2024/01/03 07:30:15;;;;;;;12.10;2.30;;;10.70;89.10;;;;;;9177113;19;20567;-75
2024/01/03 07:33:23;;;;;;;16.70;2.83;;;10.70;89.10;;;;;;9179919;19;20021;-75
2024/01/03 07:36:32;;;;;;;16.95;2.65;;;10.70;89.10;;;;;;9180139;19;20018;-75
2024/01/03 07:39:39;;;;;;;21.25;3.28;;;10.70;89.10;;;;;;9177675;19;20015;-74
2024/01/03 07:42:46;;;;;;;17.45;2.70;;;10.70;89.10;;;;;;9179425;19;20486;-74
2024/01/03 07:45:54;;;;;;;20.52;2.22;;;10.70;89.20;;;;;;9176496;19;20361;-74
2024/01/03 07:48:59;;;;;;;14.93;2.95;;;10.70;89.10;;;;;;9176178;19;20018;-70
2024/01/03 07:52:10;;;;;;;14.05;2.13;;;10.70;89.20;;;;;;9179969;19;20011;-70
2024/01/03 07:55:16;;;;;;;15.73;3.72;;;10.60;89.10;;;;;;9179385;19;20060;-71
2024/01/03 07:58:24;;;;;;;15.10;2.75;;;10.60;89.10;;;;;;9179334;19;20025;-70
2024/01/03 08:01:29;;;;;;;6.95;2.50;;;10.70;89.20;;;;;;9179002;19;20404;-72
2024/01/03 08:04:38;;;;;;;11.82;2.45;;;10.60;89.20;;;;;;9177129;19;20120;-70
2024/01/03 08:07:47;;;;;;;21.95;2.38;;;10.70;89.30;;;;;;9177931;19;20368;-73
2024/01/03 08:11:01;;;;;;;12.18;2.42;;;10.70;89.30;;;;;;9178344;19;20022;-72
2024/01/03 08:14:06;;;;;;;16.85;3.47;;;10.70;89.20;;;;;;9177873;19;20015;-69
2024/01/03 08:17:14;;;;;;;16.25;3.33;;;10.70;89.20;;;;;;9175679;19;20018;-69
2024/01/03 08:20:19;;;;;;;9.35;1.90;;;10.70;89.10;;;;;;9177249;19;20017;-70
2024/01/03 08:23:31;;;;;;;12.90;2.30;;;10.70;89.10;;;;;;9175949;19;20309;-69
2024/01/03 08:26:37;;;;;;;4.95;1.63;;;10.60;89.10;;;;;;9176375;19;20014;-69
2024/01/03 08:29:45;;;;;;;10.88;3.03;;;10.70;89.20;;;;;;9178403;19;20524;-69
2024/01/03 08:32:54;;;;;;;11.20;3.00;;;10.70;89.80;;;;;;9175821;19;20018;-71
2024/01/03 08:36:04;;;;;;;9.65;1.50;;;10.60;89.10;;;;;;9176842;19;20025;-70
2024/01/03 08:39:13;;;;;;;7.07;1.48;;;10.60;89.20;;;;;;9174421;19;20014;-70
2024/01/03 08:42:21;;;;;;;13.32;1.63;;;10.60;89.20;;;;;;9176663;19;20011;-70
2024/01/03 08:45:26;;;;;;;6.00;1.52;;;10.50;89.10;;;;;;9176242;19;20491;-70
2024/01/03 08:48:34;;;;;;;5.82;1.73;;;10.50;89.20;;;;;;9176390;19;20029;-69
2024/01/03 08:51:40;;;;;;;9.82;1.40;;;10.50;89.20;;;;;;9172809;19;20471;-69
2024/01/03 08:54:50;;;;;;;4.07;1.10;;;10.50;89.20;;;;;;9177269;19;20014;-70
2024/01/03 08:57:56;;;;;;;5.63;1.00;;;10.50;89.20;;;;;;9176857;19;20052;-67
2024/01/03 09:01:04;;;;;;;4.00;0.90;;;10.50;89.20;;;;;;9174174;19;20022;-68
2024/01/03 09:04:10;;;;;;;8.05;1.55;;;10.40;89.10;;;;;;9176597;19;20019;-70
2024/01/03 09:07:17;;;;;;;9.25;1.27;;;10.40;89.20;;;;;;9174071;19;20019;-73
2024/01/03 09:10:26;;;;;;;10.15;0.85;;;10.40;89.10;;;;;;9175707;19;20017;-72
2024/01/03 09:13:38;;;;;;;9.48;1.60;;;10.40;89.10;;;;;;9175286;19;20018;-74
2024/01/03 09:16:43;;;;;;;12.80;1.48;;;10.40;89.00;;;;;;9175829;19;20025;-72
2024/01/03 09:19:51;;;;;;;7.57;1.30;;;10.40;89.10;;;;;;9171980;19;20011;-72
2024/01/03 09:22:58;;;;;;;6.97;1.17;;;10.40;89.10;;;;;;9173757;19;20018;-75
2024/01/03 09:26:11;;;;;;;8.65;1.50;;;10.30;89.10;;;;;;9174295;19;20019;-73
2024/01/03 09:29:17;;;;;;;4.45;1.30;;;10.30;89.10;;;;;;9172255;19;20014;-71
2024/01/03 09:32:25;;;;;;;11.75;1.38;;;10.30;89.50;;;;;;9174253;19;20029;-71
2024/01/03 09:35:31;;;;;;;15.63;1.67;;;10.30;89.10;;;;;;9174936;19;20011;-72
2024/01/03 09:38:40;;;;;;;12.93;1.75;;;10.30;89.10;;;;;;9169317;19;20028;-72
2024/01/03 09:41:49;;;;;;;11.90;1.70;;;10.30;89.10;;;;;;9171659;19;20024;-70
2024/01/03 09:44:58;;;;;;;17.17;1.95;;;10.30;89.20;;;;;;9174061;19;20018;-72
2024/01/03 09:48:06;;;;;;;13.45;1.65;;;10.30;89.20;;;;;;9174530;19;20067;-71
2024/01/03 09:51:14;;;;;;;22.52;3.25;;;10.30;89.30;;;;;;9171986;19;20026;-72
2024/01/03 09:54:20;;;;;;;10.85;1.80;;;10.30;89.30;;;;;;9176859;19;20018;-70
2024/01/03 09:57:30;;;;;;;12.88;1.95;;;10.30;89.30;;;;;;9174963;19;20021;-71
2024/01/03 10:00:36;;;;;;;13.93;1.77;;;10.30;89.90;;;;;;9174823;19;20536;-70
2024/01/03 10:03:44;;;;;;;8.40;2.08;;;10.30;89.30;;;;;;9176609;19;20011;-71
2024/01/03 10:06:54;;;;;;;11.70;1.95;;;10.30;89.30;;;;;;9175817;19;20020;-70
2024/01/03 10:10:02;;;;;;;15.68;1.98;;;10.30;89.30;;;;;;9175720;19;20014;-77
2024/01/03 10:13:27;;;;;;;12.02;1.95;;;10.30;89.30;;;;;;9173855;19;20018;-78
2024/01/03 10:16:35;;;;;;;11.38;1.90;;;10.30;89.30;;;;;;9171716;19;20026;-82
2024/01/03 10:19:42;;;;;;;10.40;2.20;;;10.30;89.40;;;;;;9175022;19;20014;-77
2024/01/03 10:22:49;;;;;;;9.07;1.60;;;10.30;89.40;;;;;;9175376;19;20022;-80
2024/01/03 10:25:58;;;;;;;8.00;1.98;;;10.30;89.40;;;;;;9174885;19;20021;-79
2024/01/03 10:29:16;;;;;;;15.75;2.50;;;10.40;89.50;;;;;;9173835;19;20018;-79
2024/01/03 10:32:22;;;;;;;14.27;1.95;;;10.40;89.50;;;;;;9173920;19;20011;-81
2024/01/03 10:35:32;;;;;;;12.05;1.83;;;10.40;89.40;;;;;;9173775;19;20014;-81
2024/01/03 10:38:39;;;;;;;12.95;2.00;;;10.30;89.40;;;;;;9174254;19;20046;-81
2024/01/03 10:41:48;;;;;;;12.95;2.35;;;10.40;89.50;;;;;;9178898;19;20021;-81
2024/01/03 10:44:57;;;;;;;9.70;2.75;;;10.30;89.50;;;;;;9182162;19;20018;-79
2024/01/03 10:48:05;;;;;;;16.60;2.90;;;10.30;89.60;;;;;;9181709;19;20018;-80
2024/01/03 10:51:15;;;;;;;18.63;2.17;;;10.30;89.60;;;;;;9178963;19;20015;-78
2024/01/03 10:54:26;;;;;;;10.95;1.77;;;10.30;89.70;;;;;;9182451;19;20036;-80
2024/01/03 10:57:33;;;;;;;14.77;2.25;;;10.30;89.70;;;;;;9180855;19;20513;-77
2024/01/03 11:00:51;;;;;;;14.82;2.55;;;10.40;89.80;;;;;;9181736;19;20011;-79
2024/01/03 11:04:05;;;;;;;13.38;1.80;;;10.40;89.90;;;;;;9183827;19;20488;-79
2024/01/03 11:07:20;;;;;;;19.15;2.47;;;10.40;89.90;;;;;;9177836;19;20011;-80
2024/01/03 11:10:51;;;;;;;12.77;2.25;;;10.40;89.90;;;;;;9191581;19;20032;-81
2024/01/03 11:14:00;;;;;;;14.63;2.08;;;10.40;89.90;;;;;;9179129;19;20018;-82
2024/01/03 11:17:11;;;;;;;12.43;2.42;;;10.40;89.90;;;;;;9177616;19;20424;-73
2024/01/03 11:20:30;;;;;;;10.45;1.95;;;10.40;89.90;;;;;;9181063;19;20022;-71
2024/01/03 11:23:35;;;;;;;3.47;1.33;;;10.40;90.00;;;;;;9180564;19;20081;-73
2024/01/03 11:27:04;;;;;;;4.50;1.30;;;10.40;90.00;;;;;;9180338;19;20026;-73
2024/01/03 11:30:43;;;;;;;5.30;1.23;;;10.40;90.00;;;;;;9181912;19;20014;-71
2024/01/03 11:33:53;;;;;;;9.93;1.90;;;10.40;90.00;;;;;;9183028;19;20029;-73
2024/01/03 11:36:59;;;;;;;5.45;1.17;;;10.40;90.00;;;;;;9178631;19;20011;-71
2024/01/03 11:40:20;;;;;;;8.50;1.88;;;10.40;90.00;;;;;;9178386;19;20641;-73
2024/01/03 11:43:27;;;;;;;4.00;0.88;;;10.50;90.00;;;;;;9177563;19;20753;-71
2024/01/03 11:46:34;;;;;;;2.97;0.93;;;10.40;90.00;;;;;;9180927;19;20024;-72
2024/01/03 11:49:43;;;;;;;2.60;0.70;;;10.40;90.00;;;;;;9178151;19;20014;-71
2024/01/03 11:52:51;;;;;;;7.07;1.25;;;10.50;90.00;;;;;;9181683;19;20025;-71
2024/01/03 11:55:59;;;;;;;3.40;0.80;;;10.50;90.10;;;;;;9182288;19;20041;-71
2024/01/03 11:59:06;;;;;;;4.22;1.08;;;10.50;90.10;;;;;;9179019;19;20015;-71
2024/01/03 12:02:14;;;;;;;8.77;1.63;;;10.50;90.10;;;;;;9177946;19;20030;-71
2024/01/03 12:05:27;;;;;;;7.35;1.17;;;10.50;90.10;;;;;;9178398;19;20028;-72
2024/01/03 12:08:34;;;;;;;13.65;1.83;;;10.50;90.10;;;;;;9178604;19;20098;-72
2024/01/03 12:11:42;;;;;;;18.10;2.30;;;10.50;90.10;;;;;;9178844;19;20018;-74
2024/01/03 12:14:53;;;;;;;13.15;3.08;;;10.50;90.10;;;;;;9180271;19;20366;-72
2024/01/03 12:18:08;;;;;;;19.92;2.90;;;10.50;90.10;;;;;;9177652;19;20018;-74
2024/01/03 12:21:17;;;;;;;17.02;2.72;;;10.50;90.10;;;;;;9177024;19;20018;-72
2024/01/03 12:24:25;;;;;;;16.38;2.63;;;10.60;90.10;;;;;;9177980;19;20019;-72
2024/01/03 12:27:31;;;;;;;23.23;3.22;;;10.60;90.10;;;;;;9176809;19;20021;-75
2024/01/03 12:30:39;;;;;;;23.88;3.53;;;10.60;90.20;;;;;;9174935;19;20014;-74
2024/01/03 12:33:44;;;;;;;21.98;4.07;;;10.70;90.20;;;;;;9177846;19;20058;-75
2024/01/03 12:36:55;;;;;;;25.67;4.25;;;10.70;90.20;;;;;;9177139;19;20014;-74
2024/01/03 12:40:00;;;;;;;21.50;3.70;;;10.70;90.20;;;;;;9177718;19;20406;-74
2024/01/03 12:43:08;;;;;;;25.67;4.28;;;10.70;90.20;;;;;;9175149;19;20381;-75
2024/01/03 12:46:14;;;;;;;27.02;3.65;;;10.70;90.20;;;;;;9175302;19;20480;-75
2024/01/03 12:49:22;;;;;;;20.23;3.00;;;10.70;90.20;;;;;;9173241;19;20474;-75
2024/01/03 12:52:33;;;;;;;25.25;3.13;;;10.80;90.20;;;;;;9177342;19;20019;-74
2024/01/03 12:55:40;;;;;;;26.85;4.53;;;10.80;90.20;;;;;;9178522;19;20022;-74
2024/01/03 12:58:46;;;;;;;26.08;4.10;;;10.80;90.20;;;;;;9178649;19;20057;-74
2024/01/03 13:01:53;;;;;;;25.52;3.67;;;10.80;90.40;;;;;;9178031;19;20018;-75
2024/01/03 13:04:59;;;;;;;20.88;4.15;;;10.80;90.20;;;;;;9174565;19;20023;-75
2024/01/03 13:08:10;;;;;;;21.80;4.25;;;10.90;90.20;;;;;;9174673;19;20041;-75
2024/01/03 13:11:15;;;;;;;23.33;4.03;;;10.90;90.10;;;;;;9178002;19;20034;-75
2024/01/03 13:14:23;;;;;;;41.00;5.90;;;10.90;90.10;;;;;;9177794;19;20074;-75
2024/01/03 13:17:29;;;;;;;28.00;3.38;;;10.90;90.10;;;;;;9175395;19;20021;-75
2024/01/03 13:20:37;;;;;;;24.75;3.33;;;10.90;90.00;;;;;;9176550;19;20018;-75
2024/01/03 13:23:45;;;;;;;24.67;4.20;;;10.90;90.10;;;;;;9172558;19;20053;-74
2024/01/03 13:26:53;;;;;;;29.13;4.32;;;10.90;90.10;;;;;;9176110;19;20492;-74
2024/01/03 13:29:58;;;;;;;23.83;3.80;;;10.90;90.00;;;;;;9176143;19;20026;-74
2024/01/03 13:33:06;;;;;;;27.27;4.13;;;10.90;90.00;;;;;;9176118;19;20025;-73
2024/01/03 13:36:12;;;;;;;24.40;4.53;;;10.90;90.00;;;;;;9175951;19;20018;-74
2024/01/03 13:39:23;;;;;;;37.65;5.05;;;11.00;90.00;;;;;;9174967;19;20026;-74
2024/01/03 13:42:28;;;;;;;30.88;4.38;;;11.00;90.00;;;;;;9174818;19;20027;-75
2024/01/03 13:45:36;;;;;;;24.20;4.75;;;11.00;90.00;;;;;;9175159;19;20381;-75
2024/01/03 13:48:42;;;;;;;19.17;3.70;;;11.00;90.00;;;;;;9169279;19;20476;-74
2024/01/03 13:51:51;;;;;;;26.45;3.80;;;11.00;90.00;;;;;;9173277;19;20026;-74
2024/01/03 13:55:01;;;;;;;22.38;3.70;;;11.00;90.00;;;;;;9176894;19;20380;-74
2024/01/03 13:58:08;;;;;;;36.47;5.20;;;11.00;90.00;;;;;;9173700;19;20022;-75
2024/01/03 14:01:14;;;;;;;26.58;4.32;;;11.10;90.00;;;;;;9172793;19;20021;-74
2024/01/03 14:04:22;;;;;;;26.15;3.50;;;11.00;89.80;;;;;;9172933;19;20086;-74
2024/01/03 14:07:27;;;;;;;40.08;3.53;;;11.00;89.80;;;;;;9174424;19;20432;-75
2024/01/03 14:10:40;;;;;;;21.05;3.35;;;11.00;89.80;;;;;;9175550;19;20011;-74
2024/01/03 14:13:46;;;;;;;19.77;3.05;;;11.00;89.70;;;;;;9170935;19;20019;-74
2024/01/03 14:16:54;;;;;;;19.40;4.35;;;11.00;89.70;;;;;;9170197;19;20484;-74
2024/01/03 14:20:05;;;;;;;20.08;3.20;;;11.10;89.70;;;;;;9173416;19;20034;-74
2024/01/03 14:23:15;;;;;;;19.90;3.63;;;11.00;89.60;;;;;;9172368;19;20010;-74
2024/01/03 14:26:24;;;;;;;24.00;3.92;;;11.00;89.60;;;;;;9173456;19;20018;-74
2024/01/03 14:29:32;;;;;;;21.85;3.80;;;11.00;90.10;;;;;;9171622;19;20028;-74
2024/01/03 14:32:38;;;;;;;29.90;3.65;;;11.00;89.60;;;;;;9171895;19;20029;-75
2024/01/03 14:35:46;;;;;;;21.35;4.00;;;10.90;90.00;;;;;;9173582;19;20026;-75
2024/01/03 14:38:52;;;;;;;16.23;3.35;;;10.90;89.50;;;;;;9173232;19;20467;-75
2024/01/03 14:42:06;;;;;;;18.42;2.80;;;10.90;89.60;;;;;;9172532;19;20356;-74
2024/01/03 14:45:11;;;;;;;27.85;5.05;;;10.90;89.70;;;;;;9171095;19;20056;-75
2024/01/03 14:48:19;;;;;;;16.25;2.88;;;10.90;89.70;;;;;;9173226;19;20022;-72
2024/01/03 14:51:25;;;;;;;20.77;3.55;;;10.90;89.70;;;;;;9167250;19;20376;-71
2024/01/03 14:54:33;;;;;;;9.10;1.98;;;10.90;89.70;;;;;;9170690;19;20766;-73
2024/01/03 14:57:42;;;;;;;16.05;2.60;;;10.90;89.70;;;;;;9168394;19;20027;-72
2024/01/03 15:00:53;;;;;;;21.40;3.63;;;10.90;89.70;;;;;;9171030;19;20018;-71
2024/01/03 15:03:58;;;;;;;14.18;2.25;;;10.90;89.70;;;;;;9173676;19;20029;-72
2024/01/03 15:07:07;;;;;;;17.48;4.30;;;10.80;89.50;;;;;;9171621;19;20015;-72
2024/01/03 15:10:13;;;;;;;23.23;3.50;;;10.80;89.50;;;;;;9174429;19;20111;-71
2024/01/03 15:13:23;;;;;;;13.90;2.35;;;10.80;89.40;;;;;;9174089;19;20029;-71
2024/01/03 15:16:28;;;;;;;17.25;2.28;;;10.70;89.30;;;;;;9172808;19;20007;-71
2024/01/03 15:19:37;;;;;;;12.52;2.13;;;10.70;89.40;;;;;;9172729;19;20018;-71
2024/01/03 15:22:42;;;;;;;12.73;2.27;;;10.60;89.50;;;;;;9172479;19;20401;-71
2024/01/03 15:25:50;;;;;;;11.50;2.40;;;10.60;89.50;;;;;;9170921;19;20260;-72
2024/01/03 15:28:59;;;;;;;10.80;1.80;;;10.60;89.40;;;;;;9179783;19;20011;-70
2024/01/03 15:32:07;;;;;;;9.80;1.48;;;10.60;89.40;;;;;;9180158;19;20018;-72
2024/01/03 15:35:13;;;;;;;8.38;2.40;;;10.50;89.30;;;;;;9181426;19;20056;-74
2024/01/03 15:38:23;;;;;;;9.98;1.67;;;10.50;89.40;;;;;;9179520;19;20021;-72
2024/01/03 15:41:29;;;;;;;7.07;1.50;;;10.40;89.40;;;;;;9183461;19;20015;-70
2024/01/03 15:44:41;;;;;;;5.50;1.65;;;10.40;89.50;;;;;;9180754;19;20026;-72
2024/01/03 15:47:47;;;;;;;13.23;1.60;;;10.30;89.50;;;;;;9183530;19;20108;-71
2024/01/03 15:50:59;;;;;;;8.13;1.38;;;10.30;89.60;;;;;;9178857;19;20481;-71
2024/01/03 15:54:05;;;;;;;13.45;1.77;;;10.30;89.60;;;;;;9179841;19;20472;-71
2024/01/03 15:57:13;;;;;;;7.90;1.20;;;10.30;89.60;;;;;;9183330;19;20022;-75
2024/01/03 16:00:22;;;;;;;6.72;1.40;;;10.20;89.50;;;;;;9182164;19;20032;-76
2024/01/03 16:03:32;;;;;;;5.28;1.30;;;10.20;89.50;;;;;;9180673;19;20022;-76
2024/01/03 16:06:40;;;;;;;6.95;1.65;;;10.20;89.50;;;;;;9179851;19;20025;-75
2024/01/03 16:09:47;;;;;;;6.22;1.17;;;10.20;89.60;;;;;;9181513;19;20018;-74